Time;durP1;ratioP1;P1;durP2;ratioP2;P2;SDS_P1;SDS_P2;PMS_P1;PMS_P2;Temp;Humidity;BMP_temperature;BMP_pressure;BME280_temperature;BME280_humidity;BME280_pressure;Samples;Min_cycle;Max_cycle;Signal;HPM_P1;HPM_P2
2022/05/07 00:00:20;;;;;;;39.03;18.17;;;;;;;;;;10496845;28;20033;-78
2022/05/07 00:05:24;;;;;;;37.05;16.90;;;;;;;;;;10501861;28;20060;-79
2022/05/07 00:10:28;;;;;;;43.03;18.90;;;;;;;;;;10493838;28;20041;-78
2022/05/07 00:15:32;;;;;;;42.72;19.50;;;;;;;;;;10482239;28;20041;-77
2022/05/07 00:20:36;;;;;;;42.90;19.35;;;;;;;;;;10495653;28;20076;-78
2022/05/07 00:25:40;;;;;;;36.63;17.27;;;;;;;;;;10493137;28;20048;-79
2022/05/07 00:30:43;;;;;;;40.75;18.58;;;;;;;;;;10479856;28;20040;-78
2022/05/07 00:35:46;;;;;;;41.08;19.17;;;;;;;;;;10488247;28;20540;-77
2022/05/07 00:40:51;;;;;;;43.47;19.37;;;;;;;;;;10479185;28;20163;-78
2022/05/07 00:45:54;;;;;;;45.92;19.52;;;;;;;;;;10485271;28;20295;-77
2022/05/07 00:56:23;;;;;;;37.53;17.08;;;;;;;;;;10447778;28;20079;-77
2022/05/07 01:01:26;;;;;;;43.55;19.15;;;;;;;;;;10467397;28;20076;-77
2022/05/07 01:06:30;;;;;;;40.28;18.75;;;;;;;;;;10475161;28;20040;-77
2022/05/07 01:11:35;;;;;;;40.97;18.67;;;;;;;;;;10477498;28;20041;-76
2022/05/07 01:16:39;;;;;;;42.15;18.83;;;;;;;;;;10474248;28;20158;-78
2022/05/07 01:21:49;;;;;;;40.70;18.58;;;;;;;;;;10481328;28;20527;-78
2022/05/07 01:26:54;;;;;;;44.05;18.58;;;;;;;;;;10471318;28;20041;-78
2022/05/07 01:31:57;;;;;;;40.63;19.00;;;;;;;;;;10484290;28;20385;-78
2022/05/07 01:37:02;;;;;;;44.63;19.83;;;;;;;;;;10486337;28;20056;-79
2022/05/07 01:42:05;;;;;;;40.08;19.02;;;;;;;;;;10490290;28;20531;-79
2022/05/07 01:52:29;;;;;;;46.90;20.15;;;;;;;;;;10478918;28;20388;-77
2022/05/07 01:57:33;;;;;;;44.35;19.75;;;;;;;;;;10471504;28;20036;-77
2022/05/07 02:02:36;;;;;;;42.28;18.45;;;;;;;;;;10470676;28;20098;-77
2022/05/07 02:07:40;;;;;;;42.53;20.10;;;;;;;;;;10473456;28;20456;-77
2022/05/07 02:12:43;;;;;;;44.05;19.30;;;;;;;;;;10475886;28;20036;-76
2022/05/07 02:17:46;;;;;;;44.03;20.08;;;;;;;;;;10470118;28;20116;-78
2022/05/07 02:22:52;;;;;;;47.53;20.50;;;;;;;;;;10479955;28;20634;-78
2022/05/07 02:27:55;;;;;;;41.47;19.25;;;;;;;;;;10478423;28;20052;-79
2022/05/07 02:32:58;;;;;;;45.95;19.80;;;;;;;;;;10489393;28;20416;-78
2022/05/07 02:38:03;;;;;;;43.25;20.85;;;;;;;;;;10477802;28;20037;-78
2022/05/07 02:43:10;;;;;;;46.00;20.75;;;;;;;;;;10479898;28;20028;-77
2022/05/07 02:48:13;;;;;;;45.63;20.75;;;;;;;;;;10480828;28;20154;-78
2022/05/07 02:53:17;;;;;;;44.33;20.67;;;;;;;;;;10472458;28;20037;-78
2022/05/07 02:58:20;;;;;;;47.78;21.90;;;;;;;;;;10475401;28;20081;-77
2022/05/07 03:03:23;;;;;;;50.75;22.10;;;;;;;;;;10474368;28;20035;-77
2022/05/07 03:08:27;;;;;;;43.27;20.03;;;;;;;;;;10471785;28;20032;-77
2022/05/07 03:13:30;;;;;;;45.25;20.73;;;;;;;;;;10473534;28;20044;-78
2022/05/07 03:18:35;;;;;;;47.35;22.85;;;;;;;;;;10486440;28;20447;-79
2022/05/07 03:23:40;;;;;;;45.03;20.52;;;;;;;;;;10470957;28;20128;-77
2022/05/07 03:28:43;;;;;;;48.70;22.33;;;;;;;;;;10475888;28;20090;-77
2022/05/07 03:33:46;;;;;;;47.10;22.08;;;;;;;;;;10475285;28;20415;-77
2022/05/07 03:38:50;;;;;;;46.50;21.65;;;;;;;;;;10476266;28;20135;-78
2022/05/07 03:43:53;;;;;;;46.78;20.85;;;;;;;;;;10480163;28;20059;-78
2022/05/07 03:48:56;;;;;;;48.38;21.08;;;;;;;;;;10480477;28;20048;-77
2022/05/07 03:54:01;;;;;;;52.90;22.88;;;;;;;;;;10482254;28;20530;-79
2022/05/07 03:59:04;;;;;;;53.28;22.40;;;;;;;;;;10488017;28;20061;-78
2022/05/07 04:04:07;;;;;;;50.38;21.58;;;;;;;;;;10485936;28;20032;-77
2022/05/07 04:09:11;;;;;;;55.08;21.05;;;;;;;;;;10472622;28;20111;-77
2022/05/07 04:14:13;;;;;;;46.65;20.65;;;;;;;;;;10483044;28;20496;-77
2022/05/07 04:19:19;;;;;;;50.10;22.20;;;;;;;;;;10486131;28;20055;-78
2022/05/07 04:24:24;;;;;;;51.42;22.00;;;;;;;;;;10495025;28;20299;-78
2022/05/07 04:29:26;;;;;;;45.70;20.20;;;;;;;;;;10484390;28;20086;-77
2022/05/07 04:34:29;;;;;;;51.88;21.75;;;;;;;;;;10478798;28;20064;-77
2022/05/07 04:39:34;;;;;;;45.17;20.50;;;;;;;;;;10473319;28;20033;-78
2022/05/07 04:44:37;;;;;;;49.47;20.27;;;;;;;;;;10487220;28;20135;-77
2022/05/07 04:49:39;;;;;;;45.73;19.90;;;;;;;;;;10469851;28;20029;-78
2022/05/07 04:54:44;;;;;;;39.50;18.90;;;;;;;;;;10480329;28;20037;-78
2022/05/07 04:59:51;;;;;;;42.30;19.65;;;;;;;;;;10477591;28;20083;-78
2022/05/07 05:04:54;;;;;;;39.40;18.40;;;;;;;;;;10482105;28;20060;-77
2022/05/07 05:09:58;;;;;;;42.40;17.85;;;;;;;;;;10479408;28;20094;-77
2022/05/07 05:15:03;;;;;;;42.30;18.73;;;;;;;;;;10477471;28;20489;-77
2022/05/07 05:20:06;;;;;;;47.08;20.23;;;;;;;;;;10477629;28;20041;-78
2022/05/07 05:25:11;;;;;;;38.80;18.05;;;;;;;;;;10470978;28;20041;-78
2022/05/07 05:30:15;;;;;;;41.17;18.70;;;;;;;;;;10470391;28;20399;-77
2022/05/07 05:35:19;;;;;;;36.30;17.15;;;;;;;;;;10483543;28;20037;-78
2022/05/07 05:40:23;;;;;;;37.13;17.75;;;;;;;;;;10483955;28;20032;-77
2022/05/07 05:45:28;;;;;;;39.28;17.42;;;;;;;;;;10477849;28;20131;-79
2022/05/07 05:50:31;;;;;;;31.77;16.13;;;;;;;;;;10477425;28;20048;-77
2022/05/07 05:55:36;;;;;;;33.28;15.50;;;;;;;;;;10470711;28;20658;-77
2022/05/07 06:00:38;;;;;;;28.30;14.35;;;;;;;;;;10465963;28;20102;-77
2022/05/07 06:05:42;;;;;;;29.67;15.70;;;;;;;;;;10494702;28;20095;-78
2022/05/07 06:10:46;;;;;;;24.50;13.90;;;;;;;;;;10488314;28;20067;-78
2022/05/07 06:15:51;;;;;;;26.38;14.02;;;;;;;;;;10489774;28;20090;-79
2022/05/07 06:20:54;;;;;;;28.35;13.75;;;;;;;;;;10495968;28;20028;-78
2022/05/07 06:31:19;;;;;;;27.80;14.63;;;;;;;;;;10477433;28;20535;-78
2022/05/07 06:36:22;;;;;;;26.13;14.00;;;;;;;;;;10468805;28;20047;-78
2022/05/07 06:41:26;;;;;;;20.87;11.23;;;;;;;;;;10470400;28;20119;-77
2022/05/07 06:46:29;;;;;;;22.90;12.18;;;;;;;;;;10467956;28;20068;-79
2022/05/07 06:51:33;;;;;;;19.48;11.38;;;;;;;;;;10469093;28;20040;-79
2022/05/07 06:56:38;;;;;;;20.38;10.88;;;;;;;;;;10466606;28;20033;-79
2022/05/07 07:01:41;;;;;;;21.20;11.55;;;;;;;;;;10482812;28;20088;-79
2022/05/07 07:06:44;;;;;;;22.58;11.63;;;;;;;;;;10482737;28;20068;-79
2022/05/07 07:11:48;;;;;;;22.77;11.38;;;;;;;;;;10480452;28;20029;-79
2022/05/07 07:16:52;;;;;;;23.73;12.48;;;;;;;;;;10483211;28;20063;-78
2022/05/07 07:21:55;;;;;;;23.17;11.73;;;;;;;;;;10482529;28;20068;-78
2022/05/07 07:26:59;;;;;;;23.08;11.85;;;;;;;;;;10469908;28;20079;-77
2022/05/07 07:32:03;;;;;;;22.00;11.85;;;;;;;;;;10477802;28;20055;-78
2022/05/07 07:37:06;;;;;;;24.03;12.07;;;;;;;;;;10471883;28;20064;-77
2022/05/07 07:42:10;;;;;;;24.30;12.80;;;;;;;;;;10482097;28;20390;-77
2022/05/07 07:52:33;;;;;;;21.73;12.00;;;;;;;;;;10468144;28;20090;-77
2022/05/07 07:57:38;;;;;;;23.47;12.37;;;;;;;;;;10471303;28;20069;-78
2022/05/07 08:02:51;;;;;;;26.02;13.68;;;;;;;;;;10473284;28;20112;-79
2022/05/07 08:13:16;;;;;;;20.48;10.90;;;;;;;;;;10479875;28;20071;-78
2022/05/07 08:18:19;;;;;;;23.33;12.10;;;;;;;;;;10476417;28;20060;-78
2022/05/07 08:23:26;;;;;;;25.02;12.55;;;;;;;;;;10476371;28;20029;-79
2022/05/07 08:28:31;;;;;;;24.77;12.05;;;;;;;;;;10468555;28;20132;-79
2022/05/07 08:33:35;;;;;;;24.08;12.52;;;;;;;;;;10469004;28;20077;-78
2022/05/07 08:38:39;;;;;;;23.35;12.25;;;;;;;;;;10467257;28;20045;-79
2022/05/07 08:43:58;;;;;;;21.10;10.85;;;;;;;;;;10479884;28;20040;-79
2022/05/07 08:49:00;;;;;;;22.75;11.65;;;;;;;;;;10470512;28;20049;-79
2022/05/07 08:54:03;;;;;;;20.23;11.30;;;;;;;;;;10469749;28;20040;-79
2022/05/07 08:59:26;;;;;;;20.87;11.40;;;;;;;;;;10470247;28;20091;-78
2022/05/07 09:04:29;;;;;;;19.70;11.07;;;;;;;;;;10474556;28;20492;-77
2022/05/07 09:09:32;;;;;;;22.25;12.63;;;;;;;;;;10466615;28;20048;-77
2022/05/07 09:14:37;;;;;;;19.58;10.77;;;;;;;;;;10473557;28;20044;-79
2022/05/07 09:19:39;;;;;;;20.60;10.27;;;;;;;;;;10473201;28;20079;-77
2022/05/07 09:24:52;;;;;;;19.07;10.23;;;;;;;;;;10466808;28;20045;-77
2022/05/07 09:30:02;;;;;;;17.63;9.40;;;;;;;;;;10462283;28;20036;-77
2022/05/07 09:40:37;;;;;;;16.60;9.65;;;;;;;;;;10466101;28;20048;-78
2022/05/07 09:45:42;;;;;;;15.43;8.95;;;;;;;;;;10473019;28;20940;-78
2022/05/07 09:50:45;;;;;;;16.27;9.20;;;;;;;;;;10475793;28;20518;-78
2022/05/07 10:01:26;;;;;;;18.00;10.07;;;;;;;;;;10473364;28;20063;-77
2022/05/07 10:06:40;;;;;;;18.33;10.20;;;;;;;;;;10469058;28;20123;-78
2022/05/07 10:11:44;;;;;;;19.52;10.55;;;;;;;;;;10471597;28;20397;-77
2022/05/07 10:16:56;;;;;;;23.08;12.30;;;;;;;;;;10474730;28;20044;-77
2022/05/07 10:22:00;;;;;;;18.02;10.10;;;;;;;;;;10474023;28;20511;-77
2022/05/07 10:27:03;;;;;;;17.02;9.93;;;;;;;;;;10467585;28;20047;-77
2022/05/07 10:32:07;;;;;;;19.75;10.13;;;;;;;;;;10462834;28;20116;-78
2022/05/07 10:37:11;;;;;;;18.98;11.18;;;;;;;;;;10466774;28;20127;-78
2022/05/07 10:42:16;;;;;;;18.75;10.73;;;;;;;;;;10469550;28;20438;-77
2022/05/07 10:47:20;;;;;;;16.35;10.02;;;;;;;;;;10475308;28;20125;-77
2022/05/07 10:52:32;;;;;;;16.42;10.00;;;;;;;;;;10469982;28;20025;-78
2022/05/07 10:57:39;;;;;;;17.13;9.48;;;;;;;;;;10476154;28;20056;-78
2022/05/07 11:02:42;;;;;;;15.43;8.60;;;;;;;;;;10469003;28;20033;-79
2022/05/07 11:07:47;;;;;;;16.23;8.85;;;;;;;;;;10465713;28;20459;-79
2022/05/07 11:12:50;;;;;;;14.25;7.82;;;;;;;;;;10469643;28;20629;-79
2022/05/07 11:17:53;;;;;;;12.10;6.88;;;;;;;;;;10475798;28;20518;-79
2022/05/07 11:23:00;;;;;;;12.27;7.17;;;;;;;;;;10468027;28;20032;-80
2022/05/07 11:28:04;;;;;;;13.02;7.70;;;;;;;;;;10474418;28;20291;-79
2022/05/07 11:33:07;;;;;;;13.82;7.28;;;;;;;;;;10469055;28;20060;-79
2022/05/07 11:38:13;;;;;;;12.02;7.20;;;;;;;;;;10461778;28;20065;-80
2022/05/07 11:48:41;;;;;;;11.15;7.15;;;;;;;;;;10466371;28;20041;-79
2022/05/07 11:53:46;;;;;;;10.65;6.65;;;;;;;;;;10472014;28;20128;-79
2022/05/07 11:58:51;;;;;;;9.82;6.40;;;;;;;;;;10476351;28;20037;-78
2022/05/07 12:03:54;;;;;;;10.73;7.00;;;;;;;;;;10469854;28;20041;-78
2022/05/07 12:09:00;;;;;;;11.75;7.30;;;;;;;;;;10460642;28;20040;-77
2022/05/07 12:14:02;;;;;;;7.85;5.25;;;;;;;;;;10467907;28;20508;-79
2022/05/07 12:19:06;;;;;;;8.50;5.93;;;;;;;;;;10463747;28;20033;-77
2022/05/07 12:34:51;;;;;;;8.40;5.85;;;;;;;;;;10467067;28;20067;-77
2022/05/07 12:39:57;;;;;;;9.63;6.30;;;;;;;;;;10464522;28;20041;-77
2022/05/07 12:45:00;;;;;;;7.43;5.40;;;;;;;;;;10464798;28;20105;-78
2022/05/07 12:50:03;;;;;;;7.97;5.38;;;;;;;;;;10471922;28;20033;-79
2022/05/07 12:55:06;;;;;;;;;;;;;;;;;;10468894;28;20704;-79
2022/05/07 13:00:11;;;;;;;7.82;5.28;;;;;;;;;;10466053;28;20011;-79
2022/05/07 13:05:19;;;;;;;10.48;5.75;;;;;;;;;;10474033;28;20036;-79
2022/05/07 13:10:43;;;;;;;9.82;6.07;;;;;;;;;;10476017;28;22000;-79
2022/05/07 13:15:48;;;;;;;7.72;5.80;;;;;;;;;;10481415;28;20036;-79
2022/05/07 13:20:51;;;;;;;6.57;4.57;;;;;;;;;;10477922;28;20031;-79
2022/05/07 13:25:53;;;;;;;7.25;5.32;;;;;;;;;;10462457;28;20079;-79
2022/05/07 13:30:59;;;;;;;8.00;5.82;;;;;;;;;;10473986;28;20060;-80
2022/05/07 13:36:02;;;;;;;8.10;5.65;;;;;;;;;;10470247;28;20029;-75
2022/05/07 13:41:04;;;;;;;9.85;6.20;;;;;;;;;;10465165;28;20052;-75
2022/05/07 13:46:09;;;;;;;9.88;5.50;;;;;;;;;;10472511;28;20570;-74
2022/05/07 13:51:13;;;;;;;9.48;6.07;;;;;;;;;;10467124;28;20127;-75
2022/05/07 13:56:17;;;;;;;8.63;5.45;;;;;;;;;;10467692;28;20036;-75
2022/05/07 14:01:23;;;;;;;8.40;5.57;;;;;;;;;;10457047;28;20095;-75
2022/05/07 14:06:27;;;;;;;8.38;5.25;;;;;;;;;;10471163;28;20045;-75
2022/05/07 14:11:29;;;;;;;6.63;5.18;;;;;;;;;;10456594;28;20517;-77
2022/05/07 14:16:35;;;;;;;5.82;4.20;;;;;;;;;;10469480;28;20688;-76
2022/05/07 14:21:39;;;;;;;8.05;4.47;;;;;;;;;;10467079;28;20040;-76
2022/05/07 14:26:42;;;;;;;;;;;;;;;;;;10465667;28;20098;-76
2022/05/07 14:31:46;;;;;;;7.78;5.20;;;;;;;;;;10467953;28;20349;-76
2022/05/07 14:36:50;;;;;;;7.32;4.68;;;;;;;;;;10466930;28;20497;-75
2022/05/07 14:41:52;;;;;;;8.57;4.90;;;;;;;;;;10471091;28;20610;-78
2022/05/07 14:46:59;;;;;;;5.88;3.97;;;;;;;;;;10460715;28;20036;-79
2022/05/07 14:52:02;;;;;;;8.90;4.97;;;;;;;;;;10414957;23;20156;-77
2022/05/07 14:57:26;;;;;;;7.00;4.17;;;;;;;;;;10393802;28;20516;-76
2022/05/07 15:02:30;;;;;;;5.53;2.83;;;;;;;;;;10364306;28;20387;-75
2022/05/07 15:07:33;;;;;;;9.32;5.38;;;;;;;;;;10347879;28;20072;-74
2022/05/07 15:12:36;;;;;;;8.90;5.03;;;;;;;;;;10344915;28;20471;-75
2022/05/07 15:17:40;;;;;;;9.03;5.17;;;;;;;;;;10355627;28;20133;-77
2022/05/07 15:22:44;;;;;;;8.18;5.32;;;;;;;;;;10360265;28;20379;-77
2022/05/07 15:27:47;;;;;;;9.15;4.50;;;;;;;;;;10364200;28;20065;-77
2022/05/07 15:38:12;;;;;;;7.03;4.38;;;;;;;;;;10366759;28;20374;-76
2022/05/07 15:43:15;;;;;;;7.90;4.47;;;;;;;;;;10363361;28;20089;-77
2022/05/07 15:48:20;;;;;;;7.22;4.65;;;;;;;;;;10372149;28;20308;-77
2022/05/07 15:53:23;;;;;;;5.82;3.78;;;;;;;;;;10374070;28;20064;-77
2022/05/07 15:58:29;;;;;;;8.18;4.72;;;;;;;;;;10365194;28;20034;-77
2022/05/07 16:03:33;;;;;;;5.88;3.95;;;;;;;;;;10360327;28;20046;-77
2022/05/07 16:08:36;;;;;;;6.80;4.20;;;;;;;;;;10356558;28;20058;-76
2022/05/07 16:13:40;;;;;;;5.18;3.65;;;;;;;;;;10364435;28;20129;-78
2022/05/07 16:18:45;;;;;;;10.35;4.28;;;;;;;;;;10367709;28;20042;-76
2022/05/07 16:29:08;;;;;;;6.10;4.07;;;;;;;;;;10361719;28;20462;-74
2022/05/07 16:34:13;;;;;;;6.22;3.97;;;;;;;;;;10371471;28;20029;-77
2022/05/07 16:39:16;;;;;;;8.20;5.00;;;;;;;;;;10358298;28;20137;-78
2022/05/07 16:44:19;;;;;;;7.88;4.75;;;;;;;;;;10360895;28;20037;-77
2022/05/07 16:49:29;;;;;;;7.57;4.77;;;;;;;;;;10357255;28;20111;-76
2022/05/07 16:54:32;;;;;;;8.98;4.57;;;;;;;;;;10363330;28;20129;-77
2022/05/07 16:59:47;;;;;;;8.68;4.93;;;;;;;;;;10355476;28;20428;-77
2022/05/07 17:04:51;;;;;;;8.60;5.07;;;;;;;;;;10355846;28;20048;-81
2022/05/07 17:09:54;;;;;;;9.20;5.40;;;;;;;;;;10352541;28;20092;-79
2022/05/07 17:14:58;;;;;;;13.70;5.30;;;;;;;;;;10348547;28;20450;-76
2022/05/07 17:20:03;;;;;;;8.10;4.88;;;;;;;;;;10361954;28;20132;-77
2022/05/07 17:25:08;;;;;;;9.02;4.88;;;;;;;;;;10347532;28;20493;-76
2022/05/07 17:30:11;;;;;;;8.60;5.22;;;;;;;;;;10346605;28;20062;-76
2022/05/07 17:35:15;;;;;;;10.10;5.50;;;;;;;;;;10360170;28;20041;-77
2022/05/07 17:40:18;;;;;;;10.50;5.50;;;;;;;;;;10364418;28;20103;-78
2022/05/07 17:45:21;;;;;;;8.77;5.57;;;;;;;;;;10362139;28;20038;-78
2022/05/07 17:50:25;;;;;;;8.97;5.27;;;;;;;;;;10357864;28;20046;-75
2022/05/07 17:55:29;;;;;;;8.85;5.28;;;;;;;;;;10356135;28;20073;-76
2022/05/07 18:00:32;;;;;;;9.65;5.47;;;;;;;;;;10365885;28;20045;-76
2022/05/07 18:05:36;;;;;;;9.27;5.50;;;;;;;;;;10366672;28;20053;-77
2022/05/07 18:10:41;;;;;;;12.48;6.50;;;;;;;;;;10357326;28;20558;-77
2022/05/07 18:15:43;;;;;;;11.27;6.45;;;;;;;;;;10366005;28;20058;-77
2022/05/07 18:20:49;;;;;;;11.63;6.03;;;;;;;;;;10372799;28;20054;-78
2022/05/07 18:25:52;;;;;;;10.82;6.00;;;;;;;;;;10352064;28;20065;-77
2022/05/07 18:30:54;;;;;;;12.18;6.07;;;;;;;;;;10362832;28;20125;-78
2022/05/07 18:42:47;;;;;;;9.20;5.83;;;;;;;;;;10357931;28;21364;-78
2022/05/07 18:46:43;;;;;;;13.70;7.03;;;;;;;;;;10355264;28;20037;-75
2022/05/07 18:51:47;;;;;;;12.45;7.15;;;;;;;;;;10359216;28;20471;-77
2022/05/07 19:02:11;;;;;;;13.13;6.63;;;;;;;;;;10361887;28;20037;-77
2022/05/07 19:07:16;;;;;;;13.97;7.47;;;;;;;;;;10357220;28;20202;-78
2022/05/07 19:12:19;;;;;;;14.73;8.05;;;;;;;;;;10363229;28;20120;-76
2022/05/07 19:17:21;;;;;;;16.17;8.53;;;;;;;;;;10359507;28;20037;-76
2022/05/07 19:22:26;;;;;;;17.10;8.60;;;;;;;;;;10381274;28;20049;-79
2022/05/07 19:27:32;;;;;;;18.08;8.95;;;;;;;;;;10343226;28;20145;-76
2022/05/07 19:32:35;;;;;;;16.15;8.82;;;;;;;;;;10359429;28;20066;-78
2022/05/07 19:37:39;;;;;;;30.42;14.15;;;;;;;;;;10365284;28;20069;-76
2022/05/07 19:42:42;;;;;;;16.77;8.57;;;;;;;;;;10366259;28;20053;-78
2022/05/07 19:47:45;;;;;;;16.95;8.43;;;;;;;;;;10356870;28;20570;-77
2022/05/07 19:52:49;;;;;;;17.23;9.60;;;;;;;;;;10370527;28;20600;-77
2022/05/07 19:57:52;;;;;;;18.83;9.88;;;;;;;;;;10362357;28;20121;-77
2022/05/07 20:02:55;;;;;;;18.88;9.95;;;;;;;;;;10358954;28;20057;-77
2022/05/07 20:08:00;;;;;;;18.42;9.38;;;;;;;;;;10360632;28;20041;-76
2022/05/07 20:13:18;;;;;;;22.50;9.73;;;;;;;;;;10390752;28;20100;-77
2022/05/07 20:18:21;;;;;;;19.10;9.67;;;;;;;;;;10367947;28;20045;-76
2022/05/07 20:23:25;;;;;;;20.17;10.20;;;;;;;;;;10367497;28;20319;-77
2022/05/07 20:28:27;;;;;;;20.30;10.07;;;;;;;;;;10344824;28;20504;-77
2022/05/07 20:33:30;;;;;;;21.35;10.68;;;;;;;;;;10355237;28;20133;-76
2022/05/07 20:38:35;;;;;;;18.77;9.93;;;;;;;;;;10350182;28;20042;-77
2022/05/07 20:49:10;;;;;;;17.30;8.95;;;;;;;;;;10288620;28;20081;-76
2022/05/07 20:54:15;;;;;;;18.80;9.80;;;;;;;;;;10360853;28;20586;-79
2022/05/07 20:59:18;;;;;;;16.75;8.45;;;;;;;;;;10356979;28;20050;-77
2022/05/07 21:04:21;;;;;;;15.55;7.78;;;;;;;;;;10366101;28;20029;-78
2022/05/07 21:09:25;;;;;;;17.15;8.80;;;;;;;;;;10364358;28;20066;-75
2022/05/07 21:14:29;;;;;;;18.05;8.00;;;;;;;;;;10373381;28;20045;-78
2022/05/07 21:19:35;;;;;;;16.58;8.70;;;;;;;;;;10363646;28;20067;-75
2022/05/07 21:30:20;;;;;;;18.77;9.73;;;;;;;;;;10357271;28;20057;-76
2022/05/07 21:35:23;;;;;;;19.38;9.48;;;;;;;;;;10372929;28;20041;-76
2022/05/07 21:40:27;;;;;;;18.87;9.00;;;;;;;;;;10354794;28;20123;-77
2022/05/07 21:45:30;;;;;;;20.10;9.35;;;;;;;;;;10380573;28;20058;-75
2022/05/07 21:55:54;;;;;;;18.65;9.18;;;;;;;;;;10354790;28;20029;-76
2022/05/07 22:00:57;;;;;;;20.27;9.98;;;;;;;;;;10351225;28;20061;-76
2022/05/07 22:06:16;;;;;;;19.27;8.90;;;;;;;;;;10373635;28;20069;-79
2022/05/07 22:11:21;;;;;;;20.02;9.75;;;;;;;;;;10351174;28;20069;-77
2022/05/07 22:16:24;;;;;;;21.52;10.50;;;;;;;;;;10358186;28;20023;-74
2022/05/07 22:21:27;;;;;;;19.65;9.93;;;;;;;;;;10358209;28;20408;-76
2022/05/07 22:26:31;;;;;;;20.95;9.88;;;;;;;;;;10353302;28;20034;-77
2022/05/07 22:31:34;;;;;;;23.48;11.07;;;;;;;;;;10352491;28;20414;-76
2022/05/07 22:36:38;;;;;;;;;;;;;;;;;;10351924;28;20042;-77
2022/05/07 22:41:42;;;;;;;24.23;11.55;;;;;;;;;;10372698;28;19949;-77
2022/05/07 22:46:45;;;;;;;29.40;12.73;;;;;;;;;;10358171;28;20133;-78
2022/05/07 22:51:48;;;;;;;21.60;11.33;;;;;;;;;;10376861;28;20035;-76
2022/05/07 22:56:52;;;;;;;24.55;11.95;;;;;;;;;;10361095;28;20335;-75
2022/05/07 23:01:55;;;;;;;26.45;11.15;;;;;;;;;;10370850;28;20057;-75
2022/05/07 23:06:58;;;;;;;23.03;11.40;;;;;;;;;;10359113;28;20123;-74
2022/05/07 23:12:02;;;;;;;26.23;12.97;;;;;;;;;;10356512;28;20514;-75
2022/05/07 23:17:05;;;;;;;26.95;12.40;;;;;;;;;;10351469;28;20173;-75
2022/05/07 23:22:09;;;;;;;27.45;12.13;;;;;;;;;;10358582;28;20465;-76
2022/05/07 23:27:13;;;;;;;25.77;12.02;;;;;;;;;;10353867;28;20086;-76
2022/05/07 23:32:16;;;;;;;30.15;13.02;;;;;;;;;;10350327;28;20301;-77
2022/05/07 23:37:19;;;;;;;25.48;11.35;;;;;;;;;;10354269;28;20104;-78
2022/05/07 23:42:23;;;;;;;27.77;12.45;;;;;;;;;;10368014;28;20040;-78
2022/05/07 23:47:26;;;;;;;30.40;14.00;;;;;;;;;;10366909;28;20136;-77
2022/05/07 23:52:29;;;;;;;32.55;14.40;;;;;;;;;;10368172;28;20069;-76
2022/05/07 23:57:33;;;;;;;30.23;14.73;;;;;;;;;;10367177;28;20038;-77
